sensor_id;sensor_type;location;lat;lon;timestamp;pressure;altitude;pressure_sealevel;temperature;humidity
7474;BME280;3778;42.572;23.426;2024-02-23T00:01:26;93332.53;;;4.91;65.74
7474;BME280;3778;42.572;23.426;2024-02-23T00:03:51;93344.47;;;5.02;65.06
7474;BME280;3778;42.572;23.426;2024-02-23T00:06:17;93331.69;;;5.02;64.74
7474;BME280;3778;42.572;23.426;2024-02-23T00:08:42;93334.84;;;5.26;63.10
7474;BME280;3778;42.572;23.426;2024-02-23T00:11:08;93334.47;;;5.17;63.33
7474;BME280;3778;42.572;23.426;2024-02-23T00:13:34;93319.25;;;5.27;62.86
7474;BME280;3778;42.572;23.426;2024-02-23T00:15:59;93331.91;;;5.34;63.02
7474;BME280;3778;42.572;23.426;2024-02-23T00:18:24;93332.19;;;5.37;62.93
7474;BME280;3778;42.572;23.426;2024-02-23T00:20:50;93329.22;;;5.46;62.58
7474;BME280;3778;42.572;23.426;2024-02-23T00:23:15;93329.84;;;5.53;61.62
7474;BME280;3778;42.572;23.426;2024-02-23T00:25:41;93324.13;;;5.68;61.71
7474;BME280;3778;42.572;23.426;2024-02-23T00:28:07;93326.84;;;5.61;61.07
7474;BME280;3778;42.572;23.426;2024-02-23T00:30:32;93334.47;;;5.56;62.49
7474;BME280;3778;42.572;23.426;2024-02-23T00:32:58;93326.63;;;5.41;61.90
7474;BME280;3778;42.572;23.426;2024-02-23T00:35:23;93319.41;;;5.37;63.13
7474;BME280;3778;42.572;23.426;2024-02-23T00:37:49;93322.97;;;5.36;63.04
7474;BME280;3778;42.572;23.426;2024-02-23T00:40:14;93310.06;;;5.26;62.76
7474;BME280;3778;42.572;23.426;2024-02-23T00:42:40;93318.81;;;5.30;63.12
7474;BME280;3778;42.572;23.426;2024-02-23T00:45:05;93326.94;;;5.27;63.54
7474;BME280;3778;42.572;23.426;2024-02-23T00:47:31;93329.03;;;5.30;62.68
7474;BME280;3778;42.572;23.426;2024-02-23T00:49:56;93316.69;;;5.27;63.37
7474;BME280;3778;42.572;23.426;2024-02-23T00:52:21;93313.38;;;5.27;63.87
7474;BME280;3778;42.572;23.426;2024-02-23T00:54:47;93321.88;;;5.32;62.91
7474;BME280;3778;42.572;23.426;2024-02-23T00:57:12;93310.63;;;5.28;63.20
7474;BME280;3778;42.572;23.426;2024-02-23T00:59:38;93308.06;;;5.28;63.69
7474;BME280;3778;42.572;23.426;2024-02-23T01:02:03;93316.25;;;5.30;64.21
7474;BME280;3778;42.572;23.426;2024-02-23T01:04:30;93299.38;;;5.29;63.19
7474;BME280;3778;42.572;23.426;2024-02-23T01:06:55;93300.56;;;5.22;64.97
7474;BME280;3778;42.572;23.426;2024-02-23T01:09:20;93300.91;;;5.30;64.31
7474;BME280;3778;42.572;23.426;2024-02-23T01:11:49;93307.97;;;5.23;64.40
7474;BME280;3778;42.572;23.426;2024-02-23T01:14:15;93302.78;;;5.35;63.69
7474;BME280;3778;42.572;23.426;2024-02-23T01:16:40;93299.91;;;5.31;63.40
7474;BME280;3778;42.572;23.426;2024-02-23T01:19:05;93295.81;;;5.30;64.13
7474;BME280;3778;42.572;23.426;2024-02-23T01:21:31;93302.03;;;5.18;64.79
7474;BME280;3778;42.572;23.426;2024-02-23T01:23:56;93294.28;;;5.29;63.23
7474;BME280;3778;42.572;23.426;2024-02-23T01:26:23;93297.06;;;5.28;64.53
7474;BME280;3778;42.572;23.426;2024-02-23T01:28:48;93300.13;;;5.47;63.03
7474;BME280;3778;42.572;23.426;2024-02-23T01:31:13;93281.25;;;5.75;61.62
7474;BME280;3778;42.572;23.426;2024-02-23T01:33:39;93283.75;;;6.18;62.07
7474;BME280;3778;42.572;23.426;2024-02-23T01:36:07;93285.16;;;6.04;62.05
7474;BME280;3778;42.572;23.426;2024-02-23T01:38:33;93278.03;;;5.84;61.63
7474;BME280;3778;42.572;23.426;2024-02-23T01:40:59;93286.50;;;6.12;60.52
7474;BME280;3778;42.572;23.426;2024-02-23T01:43:25;93294.75;;;5.92;60.85
7474;BME280;3778;42.572;23.426;2024-02-23T01:45:51;93292.72;;;5.72;61.81
7474;BME280;3778;42.572;23.426;2024-02-23T01:48:16;93298.09;;;5.71;61.44
7474;BME280;3778;42.572;23.426;2024-02-23T01:50:43;93292.38;;;5.63;62.42
7474;BME280;3778;42.572;23.426;2024-02-23T01:53:10;93278.41;;;5.71;61.69
7474;BME280;3778;42.572;23.426;2024-02-23T01:55:37;93277.66;;;5.76;62.18
7474;BME280;3778;42.572;23.426;2024-02-23T01:58:05;93271.50;;;5.94;61.22
7474;BME280;3778;42.572;23.426;2024-02-23T02:00:30;93267.41;;;5.93;62.34
7474;BME280;3778;42.572;23.426;2024-02-23T02:02:56;93260.22;;;6.43;60.54
7474;BME280;3778;42.572;23.426;2024-02-23T02:05:22;93241.88;;;6.99;58.55
7474;BME280;3778;42.572;23.426;2024-02-23T02:07:49;93253.13;;;7.40;56.99
7474;BME280;3778;42.572;23.426;2024-02-23T02:10:20;93240.47;;;7.23;57.34
7474;BME280;3778;42.572;23.426;2024-02-23T02:12:46;93244.88;;;7.33;56.92
7474;BME280;3778;42.572;23.426;2024-02-23T02:15:11;93248.88;;;7.14;57.39
7474;BME280;3778;42.572;23.426;2024-02-23T02:17:36;93252.06;;;6.89;58.33
7474;BME280;3778;42.572;23.426;2024-02-23T02:20:03;93251.28;;;6.88;58.26
7474;BME280;3778;42.572;23.426;2024-02-23T02:22:34;93232.81;;;6.81;58.72
7474;BME280;3778;42.572;23.426;2024-02-23T02:25:00;93242.19;;;7.08;58.07
7474;BME280;3778;42.572;23.426;2024-02-23T02:27:25;93251.00;;;7.22;57.04
7474;BME280;3778;42.572;23.426;2024-02-23T02:29:51;93261.25;;;7.22;57.33
7474;BME280;3778;42.572;23.426;2024-02-23T02:32:16;93254.53;;;7.21;56.76
7474;BME280;3778;42.572;23.426;2024-02-23T02:34:42;93244.97;;;7.64;56.14
7474;BME280;3778;42.572;23.426;2024-02-23T02:37:08;93257.56;;;7.65;55.74
7474;BME280;3778;42.572;23.426;2024-02-23T02:39:33;93250.66;;;7.76;55.10
7474;BME280;3778;42.572;23.426;2024-02-23T02:41:59;93260.97;;;7.86;53.83
7474;BME280;3778;42.572;23.426;2024-02-23T02:44:24;93255.88;;;7.96;53.50
7474;BME280;3778;42.572;23.426;2024-02-23T02:46:51;93233.81;;;8.16;53.27
7474;BME280;3778;42.572;23.426;2024-02-23T02:49:17;93237.41;;;8.04;53.64
7474;BME280;3778;42.572;23.426;2024-02-23T02:51:42;93239.88;;;7.69;54.81
7474;BME280;3778;42.572;23.426;2024-02-23T02:54:08;93249.31;;;7.53;55.59
7474;BME280;3778;42.572;23.426;2024-02-23T02:56:33;93240.94;;;7.10;57.43
7474;BME280;3778;42.572;23.426;2024-02-23T02:58:59;93251.22;;;7.20;56.34
7474;BME280;3778;42.572;23.426;2024-02-23T03:01:24;93255.13;;;7.28;56.48
7474;BME280;3778;42.572;23.426;2024-02-23T03:03:49;93228.44;;;7.24;55.74
7474;BME280;3778;42.572;23.426;2024-02-23T03:06:15;93254.69;;;6.99;57.34
7474;BME280;3778;42.572;23.426;2024-02-23T03:08:43;93251.34;;;6.56;59.22
7474;BME280;3778;42.572;23.426;2024-02-23T03:11:09;93252.03;;;6.47;58.79
7474;BME280;3778;42.572;23.426;2024-02-23T03:13:34;93253.41;;;6.27;58.38
7474;BME280;3778;42.572;23.426;2024-02-23T03:15:59;93249.72;;;6.13;59.77
7474;BME280;3778;42.572;23.426;2024-02-23T03:18:25;93255.25;;;6.05;59.47
7474;BME280;3778;42.572;23.426;2024-02-23T03:20:52;93252.22;;;5.86;60.79
7474;BME280;3778;42.572;23.426;2024-02-23T03:23:18;93242.44;;;5.78;60.48
7474;BME280;3778;42.572;23.426;2024-02-23T03:25:43;93248.00;;;5.75;60.46
7474;BME280;3778;42.572;23.426;2024-02-23T03:28:09;93263.94;;;5.82;61.46
7474;BME280;3778;42.572;23.426;2024-02-23T03:30:34;93266.06;;;5.41;61.99
7474;BME280;3778;42.572;23.426;2024-02-23T03:33:00;93255.16;;;5.29;62.66
7474;BME280;3778;42.572;23.426;2024-02-23T03:35:26;93268.41;;;5.26;62.52
7474;BME280;3778;42.572;23.426;2024-02-23T03:37:51;93265.78;;;5.21;62.80
7474;BME280;3778;42.572;23.426;2024-02-23T03:40:16;93276.06;;;5.04;63.00
7474;BME280;3778;42.572;23.426;2024-02-23T03:42:44;93261.13;;;4.96;63.45
7474;BME280;3778;42.572;23.426;2024-02-23T03:45:09;93281.53;;;4.96;64.39
7474;BME280;3778;42.572;23.426;2024-02-23T03:47:34;93272.03;;;4.91;64.71
7474;BME280;3778;42.572;23.426;2024-02-23T03:50:00;93265.09;;;4.87;64.62
7474;BME280;3778;42.572;23.426;2024-02-23T03:52:25;93274.97;;;4.83;65.03
7474;BME280;3778;42.572;23.426;2024-02-23T03:54:51;93266.22;;;4.79;64.88
7474;BME280;3778;42.572;23.426;2024-02-23T03:57:17;93263.69;;;4.79;64.38
7474;BME280;3778;42.572;23.426;2024-02-23T03:59:54;93260.19;;;5.02;63.92
7474;BME280;3778;42.572;23.426;2024-02-23T04:02:19;93268.31;;;4.99;64.55
7474;BME280;3778;42.572;23.426;2024-02-23T04:04:45;93269.84;;;5.17;63.43
7474;BME280;3778;42.572;23.426;2024-02-23T04:07:11;93257.25;;;5.32;62.03
7474;BME280;3778;42.572;23.426;2024-02-23T04:09:36;93270.97;;;5.48;62.78
7474;BME280;3778;42.572;23.426;2024-02-23T04:12:02;93256.09;;;5.45;63.81
7474;BME280;3778;42.572;23.426;2024-02-23T04:14:27;93270.84;;;5.37;63.95
7474;BME280;3778;42.572;23.426;2024-02-23T04:16:52;93256.19;;;5.28;64.49
7474;BME280;3778;42.572;23.426;2024-02-23T04:19:18;93259.91;;;5.20;64.47
7474;BME280;3778;42.572;23.426;2024-02-23T04:21:43;93253.81;;;5.65;62.24
7474;BME280;3778;42.572;23.426;2024-02-23T04:24:09;93257.66;;;5.68;62.25
7474;BME280;3778;42.572;23.426;2024-02-23T04:26:34;93255.81;;;5.63;62.31
7474;BME280;3778;42.572;23.426;2024-02-23T04:29:00;93265.16;;;5.52;62.52
7474;BME280;3778;42.572;23.426;2024-02-23T04:31:26;93266.88;;;5.47;62.37
7474;BME280;3778;42.572;23.426;2024-02-23T04:33:51;93269.13;;;5.43;62.49
7474;BME280;3778;42.572;23.426;2024-02-23T04:36:19;93270.09;;;5.37;63.06
7474;BME280;3778;42.572;23.426;2024-02-23T04:38:45;93274.19;;;5.16;63.16
7474;BME280;3778;42.572;23.426;2024-02-23T04:41:11;93279.41;;;5.26;63.97
7474;BME280;3778;42.572;23.426;2024-02-23T04:43:36;93282.03;;;5.31;63.74
7474;BME280;3778;42.572;23.426;2024-02-23T04:46:02;93277.56;;;5.44;62.78
7474;BME280;3778;42.572;23.426;2024-02-23T04:48:27;93278.56;;;5.86;60.80
7474;BME280;3778;42.572;23.426;2024-02-23T04:50:53;93273.34;;;5.76;61.15
7474;BME280;3778;42.572;23.426;2024-02-23T04:53:18;93270.97;;;5.91;61.26
7474;BME280;3778;42.572;23.426;2024-02-23T04:55:44;93265.41;;;5.95;61.00
7474;BME280;3778;42.572;23.426;2024-02-23T04:58:10;93265.09;;;5.91;60.70
7474;BME280;3778;42.572;23.426;2024-02-23T05:00:37;93267.03;;;5.84;61.85
7474;BME280;3778;42.572;23.426;2024-02-23T05:03:02;93264.44;;;5.79;60.82
7474;BME280;3778;42.572;23.426;2024-02-23T05:05:31;93275.78;;;5.66;61.57
7474;BME280;3778;42.572;23.426;2024-02-23T05:07:57;93269.91;;;5.65;61.61
7474;BME280;3778;42.572;23.426;2024-02-23T05:10:23;93277.75;;;5.59;62.16
7474;BME280;3778;42.572;23.426;2024-02-23T05:12:49;93256.88;;;5.45;62.89
7474;BME280;3778;42.572;23.426;2024-02-23T05:15:14;93288.56;;;5.66;62.66
7474;BME280;3778;42.572;23.426;2024-02-23T05:17:39;93277.97;;;5.79;61.50
7474;BME280;3778;42.572;23.426;2024-02-23T05:20:05;93291.97;;;5.72;62.11
7474;BME280;3778;42.572;23.426;2024-02-23T05:22:36;93293.09;;;5.59;62.31
7474;BME280;3778;42.572;23.426;2024-02-23T05:25:01;93281.09;;;5.59;62.24
7474;BME280;3778;42.572;23.426;2024-02-23T05:27:26;93292.09;;;5.60;62.52
7474;BME280;3778;42.572;23.426;2024-02-23T05:29:52;93284.34;;;5.55;63.80
7474;BME280;3778;42.572;23.426;2024-02-23T05:32:18;93287.84;;;5.49;63.39
7474;BME280;3778;42.572;23.426;2024-02-23T05:34:44;93287.19;;;5.36;63.01
7474;BME280;3778;42.572;23.426;2024-02-23T05:37:10;93295.50;;;5.27;63.52
7474;BME280;3778;42.572;23.426;2024-02-23T05:39:35;93293.09;;;5.20;64.37
7474;BME280;3778;42.572;23.426;2024-02-23T05:42:00;93294.06;;;5.14;64.94
7474;BME280;3778;42.572;23.426;2024-02-23T05:44:26;93309.13;;;5.16;65.07
7474;BME280;3778;42.572;23.426;2024-02-23T05:46:52;93301.69;;;4.92;65.58
7474;BME280;3778;42.572;23.426;2024-02-23T05:49:17;93308.09;;;4.95;64.55
7474;BME280;3778;42.572;23.426;2024-02-23T05:51:43;93315.06;;;4.82;66.03
7474;BME280;3778;42.572;23.426;2024-02-23T05:54:09;93324.13;;;4.73;66.30
7474;BME280;3778;42.572;23.426;2024-02-23T05:56:35;93321.25;;;4.70;66.65
7474;BME280;3778;42.572;23.426;2024-02-23T05:59:02;93319.63;;;4.80;66.50
7474;BME280;3778;42.572;23.426;2024-02-23T06:01:27;93317.84;;;4.81;66.98
7474;BME280;3778;42.572;23.426;2024-02-23T06:03:53;93334.81;;;4.87;65.56
7474;BME280;3778;42.572;23.426;2024-02-23T06:06:20;93330.69;;;4.86;66.40
7474;BME280;3778;42.572;23.426;2024-02-23T06:08:45;93329.13;;;4.85;67.08
7474;BME280;3778;42.572;23.426;2024-02-23T06:11:11;93332.09;;;4.77;67.09
7474;BME280;3778;42.572;23.426;2024-02-23T06:13:37;93329.38;;;4.83;66.87
7474;BME280;3778;42.572;23.426;2024-02-23T06:16:03;93343.38;;;4.81;67.24
7474;BME280;3778;42.572;23.426;2024-02-23T06:18:29;93349.47;;;4.97;66.90
7474;BME280;3778;42.572;23.426;2024-02-23T06:20:54;93345.06;;;5.09;65.82
7474;BME280;3778;42.572;23.426;2024-02-23T06:23:19;93354.91;;;5.17;65.03
7474;BME280;3778;42.572;23.426;2024-02-23T06:25:47;93351.88;;;5.20;65.98
7474;BME280;3778;42.572;23.426;2024-02-23T06:28:12;93353.28;;;5.28;65.82
7474;BME280;3778;42.572;23.426;2024-02-23T06:30:37;93348.97;;;5.33;65.14
7474;BME280;3778;42.572;23.426;2024-02-23T06:33:03;93359.94;;;5.29;65.18
7474;BME280;3778;42.572;23.426;2024-02-23T06:35:30;93333.81;;;5.27;65.14
7474;BME280;3778;42.572;23.426;2024-02-23T06:37:56;93350.31;;;5.36;65.58
7474;BME280;3778;42.572;23.426;2024-02-23T06:40:21;93354.31;;;5.49;65.95
7474;BME280;3778;42.572;23.426;2024-02-23T06:42:47;93346.81;;;5.64;64.66
7474;BME280;3778;42.572;23.426;2024-02-23T06:45:12;93348.69;;;5.69;64.46
7474;BME280;3778;42.572;23.426;2024-02-23T06:47:37;93354.16;;;5.77;63.22
7474;BME280;3778;42.572;23.426;2024-02-23T06:50:05;93350.72;;;5.88;63.15
7474;BME280;3778;42.572;23.426;2024-02-23T06:52:31;93347.47;;;5.93;62.80
7474;BME280;3778;42.572;23.426;2024-02-23T06:54:57;93352.19;;;6.01;63.77
7474;BME280;3778;42.572;23.426;2024-02-23T06:57:22;93343.63;;;6.17;63.29
7474;BME280;3778;42.572;23.426;2024-02-23T06:59:50;93350.41;;;6.29;63.62
7474;BME280;3778;42.572;23.426;2024-02-23T07:02:16;93325.69;;;6.39;61.64
7474;BME280;3778;42.572;23.426;2024-02-23T07:04:41;93341.41;;;6.53;62.77
7474;BME280;3778;42.572;23.426;2024-02-23T07:07:06;93343.25;;;6.58;62.05
7474;BME280;3778;42.572;23.426;2024-02-23T07:09:33;93333.84;;;6.63;62.06
7474;BME280;3778;42.572;23.426;2024-02-23T07:11:59;93339.53;;;6.70;61.48
7474;BME280;3778;42.572;23.426;2024-02-23T07:14:25;93324.81;;;6.88;60.73
7474;BME280;3778;42.572;23.426;2024-02-23T07:16:50;93332.06;;;7.01;61.42
7474;BME280;3778;42.572;23.426;2024-02-23T07:19:17;93327.63;;;7.23;59.17
7474;BME280;3778;42.572;23.426;2024-02-23T07:21:43;93337.44;;;7.37;59.71
7474;BME280;3778;42.572;23.426;2024-02-23T07:24:08;93342.41;;;7.53;59.10
7474;BME280;3778;42.572;23.426;2024-02-23T07:26:33;93335.16;;;7.40;59.24
7474;BME280;3778;42.572;23.426;2024-02-23T07:28:59;93321.06;;;7.43;60.76
7474;BME280;3778;42.572;23.426;2024-02-23T07:31:25;93336.25;;;7.55;59.49
7474;BME280;3778;42.572;23.426;2024-02-23T07:33:50;93325.00;;;7.61;58.70
7474;BME280;3778;42.572;23.426;2024-02-23T07:36:16;93301.72;;;7.72;59.91
7474;BME280;3778;42.572;23.426;2024-02-23T07:38:42;93324.34;;;7.91;58.63
7474;BME280;3778;42.572;23.426;2024-02-23T07:41:10;93314.88;;;7.96;57.43
7474;BME280;3778;42.572;23.426;2024-02-23T07:43:35;93307.19;;;8.06;57.37
7474;BME280;3778;42.572;23.426;2024-02-23T07:46:01;93305.97;;;8.14;57.61
7474;BME280;3778;42.572;23.426;2024-02-23T07:48:27;93320.06;;;8.17;56.35
7474;BME280;3778;42.572;23.426;2024-02-23T07:50:53;93319.38;;;8.37;56.11
7474;BME280;3778;42.572;23.426;2024-02-23T07:53:18;93313.75;;;8.55;56.62
7474;BME280;3778;42.572;23.426;2024-02-23T07:55:44;93297.59;;;8.70;56.76
7474;BME280;3778;42.572;23.426;2024-02-23T07:58:09;93300.66;;;8.77;55.79
7474;BME280;3778;42.572;23.426;2024-02-23T08:00:34;93319.16;;;8.64;55.76
7474;BME280;3778;42.572;23.426;2024-02-23T08:03:03;93309.66;;;8.64;57.49
7474;BME280;3778;42.572;23.426;2024-02-23T08:05:28;93323.25;;;8.65;56.52
7474;BME280;3778;42.572;23.426;2024-02-23T08:07:53;93318.63;;;8.67;58.19
7474;BME280;3778;42.572;23.426;2024-02-23T08:10:19;93317.88;;;8.86;56.86
7474;BME280;3778;42.572;23.426;2024-02-23T08:12:46;93324.53;;;9.08;56.20
7474;BME280;3778;42.572;23.426;2024-02-23T08:15:11;93311.69;;;9.18;56.49
7474;BME280;3778;42.572;23.426;2024-02-23T08:17:37;93317.31;;;9.35;54.57
7474;BME280;3778;42.572;23.426;2024-02-23T08:20:03;93313.94;;;9.50;55.08
7474;BME280;3778;42.572;23.426;2024-02-23T08:22:29;93309.25;;;9.62;54.82
7474;BME280;3778;42.572;23.426;2024-02-23T08:24:54;93321.09;;;9.68;53.92
7474;BME280;3778;42.572;23.426;2024-02-23T08:27:20;93312.38;;;9.54;54.69
7474;BME280;3778;42.572;23.426;2024-02-23T08:29:45;93318.03;;;9.51;54.98
7474;BME280;3778;42.572;23.426;2024-02-23T08:32:10;93316.50;;;9.60;55.14
7474;BME280;3778;42.572;23.426;2024-02-23T08:34:36;93312.09;;;9.66;55.25
7474;BME280;3778;42.572;23.426;2024-02-23T08:37:01;93324.44;;;9.69;55.70
7474;BME280;3778;42.572;23.426;2024-02-23T08:39:27;93317.47;;;9.70;55.33
7474;BME280;3778;42.572;23.426;2024-02-23T08:41:53;93319.88;;;9.40;55.05
7474;BME280;3778;42.572;23.426;2024-02-23T08:44:20;93310.81;;;9.58;55.83
7474;BME280;3778;42.572;23.426;2024-02-23T08:46:45;93315.38;;;9.77;54.92
7474;BME280;3778;42.572;23.426;2024-02-23T08:49:10;93318.16;;;9.96;55.15
7474;BME280;3778;42.572;23.426;2024-02-23T08:51:36;93314.94;;;10.29;51.67
7474;BME280;3778;42.572;23.426;2024-02-23T08:54:02;93305.47;;;10.59;52.24
7474;BME280;3778;42.572;23.426;2024-02-23T08:56:30;93316.00;;;11.01;50.75
7474;BME280;3778;42.572;23.426;2024-02-23T08:58:55;93300.84;;;11.24;48.31
7474;BME280;3778;42.572;23.426;2024-02-23T09:01:21;93297.94;;;11.31;48.95
7474;BME280;3778;42.572;23.426;2024-02-23T09:03:48;93303.56;;;11.62;47.82
7474;BME280;3778;42.572;23.426;2024-02-23T09:06:25;93311.00;;;11.92;46.00
7474;BME280;3778;42.572;23.426;2024-02-23T09:09:03;93306.25;;;11.99;45.23
7474;BME280;3778;42.572;23.426;2024-02-23T09:11:47;93320.50;;;11.97;44.04
7474;BME280;3778;42.572;23.426;2024-02-23T09:14:17;93334.06;;;12.07;45.46
7474;BME280;3778;42.572;23.426;2024-02-23T09:16:54;93307.13;;;12.32;46.30
7474;BME280;3778;42.572;23.426;2024-02-23T09:19:24;93329.94;;;12.25;43.49
7474;BME280;3778;42.572;23.426;2024-02-23T09:21:50;93323.94;;;12.30;43.68
7474;BME280;3778;42.572;23.426;2024-02-23T09:24:15;93314.88;;;12.32;44.09
7474;BME280;3778;42.572;23.426;2024-02-23T09:26:41;93311.53;;;12.51;43.61
7474;BME280;3778;42.572;23.426;2024-02-23T09:29:06;93330.59;;;12.55;43.74
7474;BME280;3778;42.572;23.426;2024-02-23T09:31:32;93329.81;;;12.35;43.19
7474;BME280;3778;42.572;23.426;2024-02-23T09:33:57;93338.75;;;12.43;43.63
7474;BME280;3778;42.572;23.426;2024-02-23T09:36:23;93335.50;;;12.56;45.12
7474;BME280;3778;42.572;23.426;2024-02-23T09:38:50;93336.03;;;12.53;43.71
7474;BME280;3778;42.572;23.426;2024-02-23T09:41:23;93331.03;;;12.62;44.01
7474;BME280;3778;42.572;23.426;2024-02-23T09:43:49;93345.47;;;12.82;44.86
7474;BME280;3778;42.572;23.426;2024-02-23T09:46:16;93349.94;;;12.39;42.81
7474;BME280;3778;42.572;23.426;2024-02-23T09:48:43;93318.44;;;12.37;43.56
7474;BME280;3778;42.572;23.426;2024-02-23T09:51:10;93329.41;;;12.47;42.82
7474;BME280;3778;42.572;23.426;2024-02-23T09:53:37;93326.13;;;12.60;44.17
7474;BME280;3778;42.572;23.426;2024-02-23T09:56:04;93326.81;;;12.85;42.33
7474;BME280;3778;42.572;23.426;2024-02-23T09:58:34;93323.16;;;12.86;41.84
7474;BME280;3778;42.572;23.426;2024-02-23T10:01:02;93310.06;;;12.96;42.29
7474;BME280;3778;42.572;23.426;2024-02-23T10:03:28;93313.50;;;13.10;42.21
7474;BME280;3778;42.572;23.426;2024-02-23T10:05:55;93293.94;;;13.04;42.11
7474;BME280;3778;42.572;23.426;2024-02-23T10:08:21;93304.25;;;13.23;41.67
7474;BME280;3778;42.572;23.426;2024-02-23T10:10:46;93297.44;;;13.27;42.72
7474;BME280;3778;42.572;23.426;2024-02-23T10:13:18;93292.75;;;13.29;42.65
7474;BME280;3778;42.572;23.426;2024-02-23T10:15:43;93300.06;;;13.55;40.38
7474;BME280;3778;42.572;23.426;2024-02-23T10:18:09;93306.84;;;13.37;40.41
7474;BME280;3778;42.572;23.426;2024-02-23T10:20:35;93277.25;;;13.57;39.99
7474;BME280;3778;42.572;23.426;2024-02-23T10:23:02;93285.56;;;13.40;40.77
7474;BME280;3778;42.572;23.426;2024-02-23T10:25:27;93279.91;;;13.38;39.93
7474;BME280;3778;42.572;23.426;2024-02-23T10:27:53;93284.81;;;13.39;40.15
7474;BME280;3778;42.572;23.426;2024-02-23T10:30:18;93287.59;;;13.43;39.84
7474;BME280;3778;42.572;23.426;2024-02-23T10:32:45;93282.25;;;13.53;40.62
7474;BME280;3778;42.572;23.426;2024-02-23T10:35:15;93275.31;;;13.76;40.81
7474;BME280;3778;42.572;23.426;2024-02-23T10:37:48;93277.59;;;14.05;40.83
7474;BME280;3778;42.572;23.426;2024-02-23T10:40:16;93281.97;;;14.32;40.89
7474;BME280;3778;42.572;23.426;2024-02-23T10:42:43;93275.75;;;14.56;40.85
7474;BME280;3778;42.572;23.426;2024-02-23T10:45:14;93286.00;;;14.38;37.78
7474;BME280;3778;42.572;23.426;2024-02-23T10:47:41;93284.78;;;14.22;38.06
7474;BME280;3778;42.572;23.426;2024-02-23T10:50:07;93271.63;;;14.18;37.46
7474;BME280;3778;42.572;23.426;2024-02-23T10:52:33;93272.63;;;14.09;40.65
7474;BME280;3778;42.572;23.426;2024-02-23T10:55:00;93263.56;;;14.20;38.79
7474;BME280;3778;42.572;23.426;2024-02-23T10:57:28;93265.34;;;13.97;39.24
7474;BME280;3778;42.572;23.426;2024-02-23T10:59:53;93261.13;;;13.74;40.86
7474;BME280;3778;42.572;23.426;2024-02-23T11:02:20;93267.75;;;13.80;40.75
7474;BME280;3778;42.572;23.426;2024-02-23T11:04:48;93270.34;;;13.66;41.04
7474;BME280;3778;42.572;23.426;2024-02-23T11:07:17;93265.06;;;13.44;40.49
7474;BME280;3778;42.572;23.426;2024-02-23T11:09:49;93251.94;;;13.07;41.85
7474;BME280;3778;42.572;23.426;2024-02-23T11:12:25;93259.13;;;13.29;40.71
7474;BME280;3778;42.572;23.426;2024-02-23T11:14:51;93257.41;;;13.66;40.58
7474;BME280;3778;42.572;23.426;2024-02-23T11:17:20;93251.53;;;14.02;39.78
7474;BME280;3778;42.572;23.426;2024-02-23T11:19:48;93246.97;;;14.07;38.84
7474;BME280;3778;42.572;23.426;2024-02-23T11:22:14;93244.56;;;13.61;39.85
7474;BME280;3778;42.572;23.426;2024-02-23T11:24:44;93236.75;;;13.75;41.69
7474;BME280;3778;42.572;23.426;2024-02-23T11:27:14;93248.56;;;13.81;39.40
7474;BME280;3778;42.572;23.426;2024-02-23T11:29:42;93238.38;;;13.71;41.64
7474;BME280;3778;42.572;23.426;2024-02-23T11:32:15;93241.00;;;13.84;40.53
7474;BME280;3778;42.572;23.426;2024-02-23T11:34:41;93243.78;;;13.74;40.75
7474;BME280;3778;42.572;23.426;2024-02-23T11:37:09;93225.56;;;13.65;40.98
7474;BME280;3778;42.572;23.426;2024-02-23T11:39:37;93234.56;;;13.68;42.57
7474;BME280;3778;42.572;23.426;2024-02-23T11:42:04;93234.72;;;13.99;38.30
7474;BME280;3778;42.572;23.426;2024-02-23T11:44:29;93233.00;;;14.31;38.16
7474;BME280;3778;42.572;23.426;2024-02-23T11:46:54;93237.00;;;14.73;38.73
7474;BME280;3778;42.572;23.426;2024-02-23T11:49:20;93248.75;;;15.24;37.94
7474;BME280;3778;42.572;23.426;2024-02-23T11:51:45;93221.25;;;15.23;38.73
7474;BME280;3778;42.572;23.426;2024-02-23T11:54:11;93217.59;;;15.24;37.02
7474;BME280;3778;42.572;23.426;2024-02-23T11:56:37;93224.56;;;15.15;37.31
7474;BME280;3778;42.572;23.426;2024-02-23T11:59:02;93196.31;;;14.82;37.83
7474;BME280;3778;42.572;23.426;2024-02-23T12:01:29;93218.81;;;14.95;37.67
7474;BME280;3778;42.572;23.426;2024-02-23T12:03:55;93204.66;;;15.01;36.76
7474;BME280;3778;42.572;23.426;2024-02-23T12:06:20;93194.72;;;15.03;37.83
7474;BME280;3778;42.572;23.426;2024-02-23T12:08:46;93216.09;;;15.32;36.18
7474;BME280;3778;42.572;23.426;2024-02-23T12:11:12;93218.84;;;15.35;36.08
7474;BME280;3778;42.572;23.426;2024-02-23T12:13:39;93200.81;;;15.30;35.58
7474;BME280;3778;42.572;23.426;2024-02-23T12:16:07;93196.19;;;15.27;35.99
7474;BME280;3778;42.572;23.426;2024-02-23T12:18:33;93201.81;;;15.60;35.59
7474;BME280;3778;42.572;23.426;2024-02-23T12:21:04;93193.47;;;15.80;36.11
7474;BME280;3778;42.572;23.426;2024-02-23T12:23:43;93224.44;;;15.60;34.61
7474;BME280;3778;42.572;23.426;2024-02-23T12:26:10;93199.13;;;15.74;36.34
7474;BME280;3778;42.572;23.426;2024-02-23T12:28:38;93195.66;;;16.48;33.76
7474;BME280;3778;42.572;23.426;2024-02-23T12:31:04;93204.50;;;15.86;34.00
7474;BME280;3778;42.572;23.426;2024-02-23T12:33:37;93204.50;;;16.55;32.82
7474;BME280;3778;42.572;23.426;2024-02-23T12:36:05;93214.44;;;15.84;33.80
7474;BME280;3778;42.572;23.426;2024-02-23T12:38:31;93206.59;;;15.67;34.78
7474;BME280;3778;42.572;23.426;2024-02-23T12:40:56;93189.56;;;15.52;34.29
7474;BME280;3778;42.572;23.426;2024-02-23T12:43:22;93179.28;;;15.38;34.46
7474;BME280;3778;42.572;23.426;2024-02-23T12:45:52;93179.75;;;15.40;36.45
7474;BME280;3778;42.572;23.426;2024-02-23T12:48:18;93195.81;;;15.42;35.97
7474;BME280;3778;42.572;23.426;2024-02-23T12:50:44;93170.09;;;15.89;34.56
7474;BME280;3778;42.572;23.426;2024-02-23T12:53:32;93176.69;;;16.13;34.18
7474;BME280;3778;42.572;23.426;2024-02-23T12:56:02;93173.19;;;16.08;36.20
7474;BME280;3778;42.572;23.426;2024-02-23T12:58:28;93172.25;;;16.56;33.72
7474;BME280;3778;42.572;23.426;2024-02-23T13:00:54;93175.63;;;16.40;34.04
7474;BME280;3778;42.572;23.426;2024-02-23T13:03:19;93177.72;;;15.77;33.87
7474;BME280;3778;42.572;23.426;2024-02-23T13:05:45;93189.50;;;15.35;36.01
7474;BME280;3778;42.572;23.426;2024-02-23T13:08:10;93176.88;;;15.02;35.71
7474;BME280;3778;42.572;23.426;2024-02-23T13:10:36;93185.50;;;14.89;36.85
7474;BME280;3778;42.572;23.426;2024-02-23T13:13:01;93179.16;;;14.72;36.83